TS94 weather

Rancho Buena Vista Airport
Bay View, Texas, United States

Public forecast

Using degrees Fahrenheit for public forecast. Weather courtesy of forecast.io.

Closest aviation weather report (METAR) to Rancho Buena Vista Airport

Closest report is Port Isabel Cameron County Airport, 5.7 nm (10.5 km) SSW. Retrieved 2019/10/14 03:53 UTC (48 minutes ago):

KPIL 140353Z AUTO 00000KT 9SM CLR 23/22 A2994 RMK AO2 SLP139 T02280217

Closest aviation forecast (TAF) to Rancho Buena Vista Airport

Closest forecast is Valley International Airport, 19.1 nm (35.4 km) W. Retrieved 2019-10-14 00:22 UTC (4 hours ago):

TAF KHRL 132320Z 1400/1424 06004KT P6SM FEW050 SCT120 FM141200 VRB04KT P6SM FEW030 SCT250